Terminal Aerodrome Forecast
Issued by NWS

Home | Current Version | Previous Version | Text Only | Print | Product List | Glossary On
Versions: 1 2 3 4 5 6 7 8 9 10 11 12 13 14 15 16 17 18 19 20 21 22 23 24 25 26 27 28 29
676
FTUS41 KOKX 201129
TAFSWF
TAF
KSWF 201129Z 2012/2118 28008G16KT P6SM BKN070
     FM201400 29015G24KT P6SM SCT050
     FM202200 28011G19KT P6SM FEW040
     FM210000 27006KT P6SM SKC
     FM210500 VRB04KT P6SM SKC
     FM211500 25008G15KT P6SM SKC
      AMD NOT SKED=

USA.gov is the U.S. government's official web portal to all federal, state and local government web resources and services.